createdAt,value
2023-01-15T00:01:52.870Z,17.00
2023-01-15T00:04:21.408Z,19.27
2023-01-15T00:06:50.640Z,17.70
2023-01-15T00:09:19.315Z,17.67
2023-01-15T00:11:48.214Z,17.90
2023-01-15T00:14:24.487Z,17.43
2023-01-15T00:16:53.199Z,18.07
2023-01-15T00:19:24.120Z,17.60
2023-01-15T00:21:54.132Z,16.90
2023-01-15T00:24:40.750Z,18.00
2023-01-15T00:27:29.468Z,16.73
2023-01-15T00:29:58.177Z,16.93
2023-01-15T00:32:28.403Z,17.27
2023-01-15T00:34:58.928Z,16.43
2023-01-15T00:37:31.030Z,17.37
2023-01-15T01:10:11.307Z,15.70
2023-01-15T01:24:48.546Z,15.07
2023-01-15T01:25:48.525Z,16.20
2023-01-15T01:28:13.325Z,16.70
2023-01-15T01:30:42.015Z,16.00
2023-01-15T01:33:10.805Z,17.60
2023-01-15T01:35:45.366Z,15.87
2023-01-15T01:38:16.131Z,16.47
2023-01-15T01:40:45.097Z,14.77
2023-01-15T01:43:27.742Z,14.67
2023-01-15T01:45:57.332Z,15.60
2023-01-15T01:48:33.242Z,14.87
2023-01-15T01:51:05.674Z,13.23
2023-01-15T01:53:34.511Z,13.47
2023-01-15T01:56:03.608Z,12.40
2023-01-15T01:58:33.857Z,11.90
2023-01-15T02:01:03.214Z,12.43
2023-01-15T02:03:34.869Z,13.83
2023-01-15T02:06:06.271Z,12.90
2023-01-15T02:08:35.249Z,12.73
2023-01-15T02:11:04.892Z,13.10
2023-01-15T02:14:00.997Z,12.63
2023-01-15T02:16:41.753Z,13.50
2023-01-15T02:19:25.990Z,13.40
2023-01-15T02:22:13.437Z,12.93
2023-01-15T02:24:57.364Z,12.93
2023-01-15T02:27:27.078Z,13.90
2023-01-15T02:30:11.211Z,13.73
2023-01-15T02:32:48.664Z,13.53
2023-01-15T02:35:20.380Z,13.70
2023-01-15T02:37:52.005Z,11.03
2023-01-15T02:40:23.375Z,11.47
2023-01-15T02:42:52.651Z,11.70
2023-01-15T02:45:29.776Z,12.60
2023-01-15T02:48:01.412Z,13.27
2023-01-15T02:50:32.954Z,12.10
2023-01-15T02:53:05.838Z,11.80
2023-01-15T02:55:37.442Z,11.57
2023-01-15T02:58:09.466Z,12.67
2023-01-15T03:00:41.172Z,11.83
2023-01-15T03:03:33.828Z,11.83
2023-01-15T03:06:11.423Z,12.10
2023-01-15T03:08:40.315Z,11.33
2023-01-15T03:11:14.512Z,12.17
2023-01-15T03:14:04.070Z,11.67
2023-01-15T03:16:43.917Z,12.57
2023-01-15T03:19:30.550Z,12.27
2023-01-15T03:22:08.016Z,12.43
2023-01-15T03:25:02.474Z,12.17
2023-01-15T03:27:31.180Z,12.00
2023-01-15T03:30:07.065Z,11.13
2023-01-15T03:32:36.724Z,11.40
2023-01-15T03:35:07.912Z,12.30
2023-01-15T03:37:36.660Z,12.03
2023-01-15T03:40:06.897Z,12.97
2023-01-15T03:42:44.676Z,12.07
2023-01-15T03:45:31.183Z,11.47
2023-01-15T03:48:08.311Z,11.60
2023-01-15T03:50:58.288Z,12.03
2023-01-15T03:53:29.840Z,12.97
2023-01-15T03:56:22.473Z,13.60
2023-01-15T03:58:54.003Z,12.47
2023-01-15T04:01:25.784Z,13.40
2023-01-15T04:03:56.887Z,11.90
2023-01-15T04:06:27.635Z,12.27
2023-01-15T04:08:57.491Z,13.50
2023-01-15T04:11:27.817Z,11.80
2023-01-15T04:13:56.503Z,12.10
2023-01-15T04:16:30.480Z,13.93
2023-01-15T04:18:59.913Z,12.17
2023-01-15T04:21:28.489Z,13.47
2023-01-15T04:23:57.213Z,11.73
2023-01-15T04:26:26.204Z,11.80
2023-01-15T04:28:54.878Z,11.37
2023-01-15T04:31:23.546Z,11.83
2023-01-15T04:33:52.193Z,11.77
2023-01-15T04:36:23.253Z,11.43
2023-01-15T04:38:51.981Z,12.27
2023-01-15T04:41:38.400Z,11.83
2023-01-15T04:44:07.226Z,12.50
2023-01-15T04:46:38.857Z,12.63
2023-01-15T04:49:12.726Z,12.13
2023-01-15T04:51:41.965Z,11.63
2023-01-15T04:54:12.737Z,11.90
2023-01-15T04:56:44.226Z,11.00
2023-01-15T04:59:13.528Z,10.60
2023-01-15T05:01:51.365Z,10.87
2023-01-15T05:04:13.129Z,11.93
2023-01-15T05:06:41.830Z,12.30
2023-01-15T05:09:10.564Z,10.77
2023-01-15T05:17:36.856Z,10.17
2023-01-15T05:20:42.207Z,9.27
2023-01-15T05:32:32.731Z,9.63
2023-01-15T05:35:22.103Z,9.53
2023-01-15T05:38:04.530Z,9.70
2023-01-15T05:40:42.570Z,9.63
2023-01-15T05:43:11.541Z,9.80
2023-01-15T05:46:00.279Z,9.30
2023-01-15T05:48:37.503Z,7.90
2023-01-15T05:51:13.835Z,8.73
2023-01-15T05:53:50.636Z,8.40
2023-01-15T05:56:30.082Z,8.47
2023-01-15T05:59:22.274Z,8.73
2023-01-15T06:01:53.875Z,9.17
2023-01-15T06:04:24.865Z,9.50
2023-01-15T06:06:55.847Z,9.03
2023-01-15T06:09:29.799Z,7.80
2023-01-15T06:11:58.546Z,8.37
2023-01-15T06:14:27.397Z,8.37
2023-01-15T06:16:58.475Z,8.07
2023-01-15T06:19:30.014Z,8.63
2023-01-15T06:22:00.254Z,9.00
2023-01-15T06:24:36.298Z,8.73
2023-01-15T06:27:11.783Z,9.87
2023-01-15T06:39:41.026Z,9.00
2023-01-15T06:46:21.760Z,10.83
2023-01-15T06:52:32.610Z,10.13
2023-01-15T06:55:01.466Z,10.00
2023-01-15T06:58:00.783Z,10.70
2023-01-15T07:00:34.372Z,10.43
2023-01-15T07:03:23.933Z,10.70
2023-01-15T07:05:52.811Z,10.87
2023-01-15T07:12:04.042Z,16.83
2023-01-15T07:14:42.835Z,15.73
2023-01-15T07:25:57.849Z,16.10
2023-01-15T07:28:26.522Z,15.90
2023-01-15T07:30:58.203Z,16.43
2023-01-15T07:33:26.873Z,15.97
2023-01-15T07:35:56.773Z,16.20
2023-01-15T07:38:25.579Z,16.33
2023-01-15T07:41:16.697Z,16.40
2023-01-15T07:44:03.862Z,16.10
2023-01-15T07:48:01.551Z,17.13
2023-01-15T07:56:32.612Z,16.33
2023-01-15T08:02:29.513Z,14.70
2023-01-15T08:05:07.970Z,12.40
2023-01-15T08:08:03.783Z,13.57
2023-01-15T08:10:39.985Z,10.83
2023-01-15T08:13:30.234Z,10.73
2023-01-15T08:16:00.907Z,11.23
2023-01-15T08:18:30.375Z,11.43
2023-01-15T08:20:59.492Z,11.23
2023-01-15T08:23:28.681Z,10.90
2023-01-15T08:26:02.077Z,11.23
2023-01-15T08:28:31.174Z,11.53
2023-01-15T08:31:01.595Z,12.23
2023-01-15T08:33:37.071Z,12.30
2023-01-15T08:36:08.055Z,13.87
2023-01-15T08:56:45.823Z,13.60
2023-01-15T09:02:05.322Z,16.70
2023-01-15T09:15:07.685Z,16.53
2023-01-15T09:17:41.508Z,16.17
2023-01-15T09:20:17.115Z,16.27
2023-01-15T09:25:37.642Z,18.20
2023-01-15T09:28:11.632Z,18.97
2023-01-15T09:30:40.663Z,20.27
2023-01-15T09:36:49.086Z,19.60
2023-01-15T09:46:20.316Z,20.60
2023-01-15T10:37:35.447Z,13.03
2023-01-15T10:40:18.785Z,13.33
2023-01-15T10:43:08.047Z,14.17
2023-01-15T10:55:51.963Z,16.40
2023-01-15T10:58:43.610Z,17.23
2023-01-15T11:01:20.041Z,15.83
2023-01-15T11:03:50.753Z,20.37
2023-01-15T11:06:22.636Z,15.73
2023-01-15T11:09:13.903Z,16.47
2023-01-15T11:12:02.291Z,16.73
2023-01-15T11:15:00.379Z,14.70
2023-01-15T11:17:49.616Z,14.17
2023-01-15T11:20:38.891Z,13.70
2023-01-15T11:23:13.471Z,14.07
2023-01-15T11:25:51.498Z,13.37
2023-01-15T11:28:24.312Z,13.67
2023-01-15T11:31:04.386Z,11.17
2023-01-15T11:33:33.525Z,12.67
2023-01-15T11:36:05.868Z,13.33
2023-01-15T11:39:03.140Z,12.60
2023-01-15T11:42:26.056Z,10.40
2023-01-15T11:48:22.667Z,10.10
2023-01-15T11:50:59.139Z,10.20
2023-01-15T11:53:31.279Z,9.97
2023-01-15T11:56:03.547Z,9.47
2023-01-15T11:58:40.763Z,8.20
2023-01-15T12:01:09.683Z,8.97
2023-01-15T12:03:41.256Z,9.67
2023-01-15T12:06:13.389Z,10.70
2023-01-15T12:09:03.354Z,10.83
2023-01-15T12:15:15.540Z,9.90
2023-01-15T12:18:06.591Z,8.80
2023-01-15T12:20:56.810Z,8.93
2023-01-15T12:23:31.606Z,9.30
2023-01-15T12:27:13.413Z,8.67
2023-01-15T12:30:15.994Z,8.50
2023-01-15T12:32:47.810Z,8.00
2023-01-15T12:35:32.510Z,9.53
2023-01-15T12:38:15.787Z,8.27
2023-01-15T12:41:06.084Z,8.27
2023-01-15T12:43:54.177Z,8.77
2023-01-15T12:46:25.807Z,8.23
2023-01-15T12:49:06.515Z,8.00
2023-01-15T12:51:41.140Z,8.30
2023-01-15T12:54:19.822Z,8.90
2023-01-15T12:57:10.037Z,8.93
2023-01-15T12:59:53.968Z,7.47
2023-01-15T13:02:57.072Z,8.00
2023-01-15T13:05:50.119Z,7.77
2023-01-15T13:08:24.808Z,6.93
2023-01-15T13:10:53.801Z,7.93
2023-01-15T13:13:28.002Z,7.93
2023-01-15T13:16:17.880Z,8.20
2023-01-15T13:19:01.816Z,7.57
2023-01-15T13:21:33.444Z,8.40
2023-01-15T13:24:57.430Z,8.80
2023-01-15T13:27:48.650Z,8.30
2023-01-15T13:33:35.376Z,9.37
2023-01-15T13:36:23.479Z,8.60
2023-01-15T13:38:55.109Z,9.27
2023-01-15T13:41:44.153Z,9.13
2023-01-15T13:44:23.901Z,9.63
2023-01-15T13:47:04.522Z,9.70
2023-01-15T13:49:39.196Z,9.50
2023-01-15T13:52:13.515Z,9.67
2023-01-15T13:54:43.380Z,9.43
2023-01-15T13:57:32.595Z,9.70
2023-01-15T14:00:04.508Z,9.97
2023-01-15T14:02:35.939Z,9.43
2023-01-15T14:05:16.924Z,9.73
2023-01-15T14:07:51.465Z,10.07
2023-01-15T14:10:23.186Z,10.03
2023-01-15T14:13:17.272Z,9.20
2023-01-15T14:16:12.051Z,10.67
2023-01-15T14:19:10.039Z,9.93
2023-01-15T14:21:47.827Z,10.43
2023-01-15T14:31:02.006Z,9.97
2023-01-15T14:56:05.574Z,12.20
2023-01-15T15:02:50.143Z,12.63
2023-01-15T15:05:31.482Z,11.67
2023-01-15T15:08:06.761Z,12.63
2023-01-15T15:13:40.390Z,13.27
2023-01-15T15:18:24.820Z,12.73
2023-01-15T15:19:38.652Z,12.90
2023-01-15T15:22:10.547Z,13.43
2023-01-15T15:24:42.184Z,12.77
2023-01-15T15:34:50.691Z,13.53
2023-01-15T15:37:22.051Z,13.37
2023-01-15T15:40:19.635Z,13.50
2023-01-15T15:43:15.148Z,14.43
2023-01-15T15:46:04.450Z,15.47
2023-01-15T15:48:48.599Z,15.47
2023-01-15T15:51:42.900Z,16.63
2023-01-15T15:54:22.049Z,15.80
2023-01-15T15:59:53.588Z,17.40
2023-01-15T16:02:35.623Z,15.47
2023-01-15T16:05:07.385Z,17.43
2023-01-15T16:18:39.061Z,19.87
2023-01-15T16:21:14.151Z,19.70
2023-01-15T16:25:24.809Z,20.73
2023-01-15T16:28:02.202Z,21.23
2023-01-15T16:57:33.881Z,21.83
2023-01-15T17:03:29.979Z,25.60
2023-01-15T17:09:08.485Z,28.13
2023-01-15T17:17:29.939Z,33.10
2023-01-15T17:20:00.182Z,40.17
2023-01-15T17:49:06.914Z,18.63
2023-01-15T17:51:35.686Z,19.87
2023-01-15T19:59:43.509Z,23.63
2023-01-15T20:02:18.623Z,21.40
2023-01-15T20:04:47.969Z,20.97
2023-01-15T20:07:17.216Z,18.40
2023-01-15T20:09:47.862Z,19.70
2023-01-15T20:12:36.120Z,18.53
2023-01-15T20:15:05.091Z,19.00
2023-01-15T20:17:34.905Z,20.17
2023-01-15T20:20:06.658Z,18.40
2023-01-15T20:22:38.428Z,17.80
2023-01-15T20:25:09.666Z,17.83
2023-01-15T20:27:46.652Z,19.10
2023-01-15T20:30:15.986Z,19.03
2023-01-15T20:32:56.175Z,18.90
2023-01-15T20:35:34.507Z,18.90
2023-01-15T20:38:02.993Z,19.83
2023-01-15T20:40:39.130Z,19.80
2023-01-15T20:43:25.866Z,19.03
2023-01-15T20:45:59.033Z,18.07
2023-01-15T20:48:47.190Z,19.40
2023-01-15T20:51:19.958Z,19.80
2023-01-15T20:53:49.699Z,19.90
2023-01-15T20:56:21.528Z,19.43
2023-01-15T20:58:56.572Z,18.93
2023-01-15T21:01:27.300Z,18.23
2023-01-15T21:04:09.314Z,21.27
2023-01-15T21:06:47.141Z,20.23
2023-01-15T21:09:19.540Z,20.70
2023-01-15T21:11:56.279Z,20.53
2023-01-15T21:18:26.575Z,21.30
2023-01-15T21:22:52.225Z,23.00
2023-01-15T21:30:59.353Z,25.40
2023-01-15T21:36:48.904Z,25.03
2023-01-15T21:39:23.591Z,25.93
2023-01-15T21:42:19.645Z,26.90
2023-01-15T21:44:56.373Z,27.47
2023-01-15T21:50:31.966Z,29.77
2023-01-15T21:59:29.183Z,32.47
2023-01-15T22:00:03.527Z,29.13
2023-01-15T22:05:03.685Z,33.60
2023-01-15T22:20:12.330Z,34.80
2023-01-15T22:22:55.778Z,35.60
2023-01-15T22:37:45.934Z,36.43
2023-01-15T22:40:22.704Z,37.73
2023-01-15T22:43:06.273Z,37.80
2023-01-15T22:49:04.885Z,37.60
2023-01-15T22:52:07.305Z,38.63
2023-01-15T22:54:48.591Z,39.27
2023-01-15T22:57:34.983Z,37.33
2023-01-15T23:00:17.886Z,38.17
2023-01-15T23:03:02.221Z,36.83
2023-01-15T23:05:34.059Z,38.37
2023-01-15T23:14:59.888Z,37.53
2023-01-15T23:29:27.935Z,38.93
2023-01-15T23:32:09.832Z,37.30
2023-01-15T23:34:57.832Z,36.83
2023-01-15T23:37:28.171Z,37.60
2023-01-15T23:39:56.960Z,37.53
2023-01-15T23:42:48.696Z,39.33
2023-01-15T23:45:37.755Z,39.87
2023-01-15T23:48:21.693Z,38.63
2023-01-15T23:53:41.231Z,38.50
2023-01-15T23:56:12.221Z,39.33
2023-01-15T23:58:50.659Z,36.83
